createdAt,value
2022-08-28T00:00:17.974Z,78.30
2022-08-28T00:02:46.482Z,79.20
2022-08-28T00:05:16.684Z,80.00
2022-08-28T00:07:47.808Z,80.60
2022-08-28T00:10:22.264Z,81.30
2022-08-28T00:12:52.603Z,81.90
2022-08-28T00:15:26.056Z,83.20
2022-08-28T00:17:54.541Z,82.80
2022-08-28T00:20:23.338Z,83.30
2022-08-28T00:22:51.548Z,83.40
2022-08-28T00:25:22.782Z,83.70
2022-08-28T00:27:56.965Z,82.40
2022-08-28T00:30:31.162Z,75.40
2022-08-28T00:33:04.211Z,72.70
2022-08-28T00:35:33.031Z,71.20
2022-08-28T00:38:01.269Z,75.40
2022-08-28T00:40:32.507Z,77.20
2022-08-28T00:43:04.289Z,78.30
2022-08-28T00:45:39.350Z,79.10
2022-08-28T00:48:08.999Z,79.70
2022-08-28T00:50:37.661Z,81.10
2022-08-28T00:53:05.728Z,81.10
2022-08-28T00:55:33.997Z,81.60
2022-08-28T00:58:02.263Z,82.10
2022-08-28T01:00:36.467Z,82.50
2022-08-28T01:03:05.881Z,82.90
2022-08-28T01:05:36.429Z,83.30
2022-08-28T01:08:06.390Z,83.60
2022-08-28T01:10:35.272Z,76.60
2022-08-28T01:13:03.342Z,72.80
2022-08-28T01:15:36.195Z,70.80
2022-08-28T01:18:09.457Z,72.70
2022-08-28T01:20:42.875Z,76.40
2022-08-28T01:23:51.881Z,77.60
2022-08-28T01:26:21.093Z,78.70
2022-08-28T01:28:49.450Z,79.50
2022-08-28T01:31:18.802Z,80.10
2022-08-28T01:33:48.016Z,80.80
2022-08-28T01:36:16.922Z,81.40
2022-08-28T01:38:49.643Z,82.00
2022-08-28T01:41:17.910Z,82.40
2022-08-28T01:43:46.358Z,82.90
2022-08-28T01:46:14.871Z,83.10
2022-08-28T01:48:44.665Z,83.60
2022-08-28T01:51:14.290Z,83.70
2022-08-28T01:53:46.471Z,84.10
2022-08-28T01:56:17.265Z,77.70
2022-08-28T01:58:46.139Z,73.50
2022-08-28T02:01:18.488Z,71.50
2022-08-28T02:03:47.630Z,74.70
2022-08-28T02:06:16.859Z,77.40
2022-08-28T02:08:45.809Z,78.40
2022-08-28T02:11:14.085Z,79.30
2022-08-28T02:13:42.414Z,80.00
2022-08-28T02:16:12.431Z,80.70
2022-08-28T02:18:40.382Z,81.50
2022-08-28T02:21:10.533Z,82.00
2022-08-28T02:23:40.657Z,82.50
2022-08-28T02:26:10.525Z,82.90
2022-08-28T02:28:39.211Z,83.50
2022-08-28T02:31:08.298Z,84.00
2022-08-28T02:33:38.819Z,84.10
2022-08-28T02:36:10.263Z,84.40
2022-08-28T02:38:39.049Z,78.00
2022-08-28T02:41:07.550Z,74.10
2022-08-28T02:43:36.015Z,71.40
2022-08-28T02:46:05.886Z,75.20
2022-08-28T02:48:37.647Z,77.90
2022-08-28T02:51:09.809Z,79.10
2022-08-28T02:53:38.377Z,80.00
2022-08-28T02:56:07.578Z,80.70
2022-08-28T02:58:36.746Z,81.50
2022-08-28T03:01:06.884Z,82.00
2022-08-28T03:03:35.342Z,82.70
2022-08-28T03:06:06.322Z,83.10
2022-08-28T03:08:34.893Z,83.60
2022-08-28T03:11:03.125Z,83.80
2022-08-28T03:13:31.730Z,84.20
2022-08-28T03:16:00.290Z,84.50
2022-08-28T03:18:29.507Z,84.70
2022-08-28T03:20:58.171Z,84.80
2022-08-28T03:23:26.099Z,78.00
2022-08-28T03:26:21.674Z,74.10
2022-08-28T03:28:53.656Z,71.90
2022-08-28T03:31:25.700Z,75.50
2022-08-28T03:33:55.001Z,78.00
2022-08-28T03:36:26.770Z,78.90
2022-08-28T03:38:57.122Z,79.70
2022-08-28T03:41:27.760Z,80.40
2022-08-28T03:43:57.646Z,81.10
2022-08-28T03:46:27.645Z,81.60
2022-08-28T03:48:56.227Z,82.50
2022-08-28T03:51:29.506Z,82.50
2022-08-28T03:54:01.802Z,83.00
2022-08-28T03:56:31.323Z,83.20
2022-08-28T03:59:01.781Z,83.80
2022-08-28T04:01:30.139Z,84.10
2022-08-28T04:03:58.498Z,84.20
2022-08-28T04:06:27.153Z,84.40
2022-08-28T04:08:55.696Z,78.50
2022-08-28T04:11:29.077Z,74.20
2022-08-28T04:13:57.137Z,71.80
2022-08-28T04:16:25.347Z,75.10
2022-08-28T04:18:53.762Z,78.00
2022-08-28T04:21:24.603Z,79.20
2022-08-28T04:23:53.835Z,80.00
2022-08-28T04:26:25.532Z,80.50
2022-08-28T04:28:55.948Z,81.30
2022-08-28T04:31:32.027Z,81.90
2022-08-28T04:34:04.297Z,82.30
2022-08-28T04:36:33.039Z,82.90
2022-08-28T04:39:01.209Z,83.10
2022-08-28T04:41:29.994Z,83.60
2022-08-28T04:43:58.499Z,84.10
2022-08-28T04:46:30.961Z,84.40
2022-08-28T04:49:00.498Z,85.20
2022-08-28T04:51:29.438Z,84.80
2022-08-28T04:53:58.620Z,81.90
2022-08-28T04:56:26.848Z,75.80
2022-08-28T04:58:55.435Z,73.50
2022-08-28T05:01:25.345Z,73.50
2022-08-28T05:03:57.771Z,77.50
2022-08-28T05:06:28.402Z,79.10
2022-08-28T05:08:58.742Z,79.90
2022-08-28T05:11:34.579Z,80.60
2022-08-28T05:14:15.910Z,81.20
2022-08-28T05:16:49.853Z,81.90
2022-08-28T05:19:19.871Z,82.60
2022-08-28T05:21:48.753Z,83.10
2022-08-28T05:24:16.810Z,83.30
2022-08-28T05:26:48.285Z,83.70
2022-08-28T05:29:17.125Z,84.20
2022-08-28T05:31:46.402Z,84.60
2022-08-28T05:34:15.054Z,84.80
2022-08-28T05:36:43.395Z,85.00
2022-08-28T05:39:12.721Z,85.40
2022-08-28T05:41:43.487Z,79.80
2022-08-28T05:44:14.363Z,75.30
2022-08-28T05:46:45.003Z,73.00
2022-08-28T05:49:13.242Z,75.50
2022-08-28T05:51:43.306Z,78.50
2022-08-28T05:54:12.486Z,79.80
2022-08-28T05:56:41.868Z,80.70
2022-08-28T05:59:12.025Z,81.30
2022-08-28T06:01:49.183Z,81.90
2022-08-28T06:04:21.833Z,82.40
2022-08-28T06:06:50.583Z,83.00
2022-08-28T06:09:29.765Z,83.30
2022-08-28T06:12:01.839Z,83.80
2022-08-28T06:14:31.197Z,84.40
2022-08-28T06:17:00.372Z,84.50
2022-08-28T06:19:30.509Z,85.00
2022-08-28T06:22:01.709Z,85.20
2022-08-28T06:24:35.899Z,85.70
2022-08-28T06:27:03.854Z,84.90
2022-08-28T06:29:32.090Z,77.50
2022-08-28T06:32:02.979Z,74.60
2022-08-28T06:34:31.370Z,73.10
2022-08-28T06:36:59.836Z,77.20
2022-08-28T06:39:28.161Z,79.10
2022-08-28T06:41:56.345Z,80.10
2022-08-28T06:44:24.621Z,80.90
2022-08-28T06:46:54.406Z,81.40
2022-08-28T06:49:23.057Z,82.00
2022-08-28T06:51:51.427Z,82.70
2022-08-28T06:54:22.945Z,83.00
2022-08-28T06:56:53.066Z,83.60
2022-08-28T06:59:21.569Z,84.00
2022-08-28T07:01:49.814Z,84.70
2022-08-28T07:04:18.160Z,85.00
2022-08-28T07:06:48.364Z,85.30
2022-08-28T07:09:18.623Z,85.40
2022-08-28T07:11:47.585Z,85.60
2022-08-28T07:14:15.858Z,79.30
2022-08-28T07:16:44.195Z,75.60
2022-08-28T07:19:13.430Z,73.40
2022-08-28T07:21:44.607Z,75.80
2022-08-28T07:24:15.285Z,78.60
2022-08-28T07:26:44.685Z,79.90
2022-08-28T07:29:13.411Z,80.70
2022-08-28T07:31:44.475Z,81.60
2022-08-28T07:34:14.055Z,82.10
2022-08-28T07:36:43.782Z,82.50
2022-08-28T07:39:13.583Z,83.00
2022-08-28T07:41:43.473Z,83.40
2022-08-28T07:44:13.439Z,83.80
2022-08-28T07:46:42.153Z,84.30
2022-08-28T07:49:10.637Z,84.50
2022-08-28T07:51:38.955Z,84.90
2022-08-28T07:54:11.207Z,85.40
2022-08-28T07:56:44.701Z,85.50
2022-08-28T07:59:15.705Z,85.70
2022-08-28T08:01:49.506Z,82.10
2022-08-28T08:04:19.057Z,76.40
2022-08-28T08:06:47.863Z,73.90
2022-08-28T08:09:18.504Z,74.70
2022-08-28T08:11:48.053Z,78.40
2022-08-28T08:14:18.412Z,79.80
2022-08-28T08:16:47.762Z,80.80
2022-08-28T08:19:17.736Z,81.50
2022-08-28T08:21:48.214Z,82.10
2022-08-28T08:24:22.072Z,82.60
2022-08-28T08:26:59.823Z,83.10
2022-08-28T08:29:33.110Z,83.80
2022-08-28T08:32:04.489Z,84.10
2022-08-28T08:34:35.659Z,84.70
2022-08-28T08:37:04.332Z,84.90
2022-08-28T08:39:33.714Z,85.30
2022-08-28T08:42:05.103Z,85.60
2022-08-28T08:44:51.825Z,85.80
2022-08-28T08:47:47.395Z,85.90
2022-08-28T08:50:28.036Z,78.20
2022-08-28T08:53:28.203Z,74.70
2022-08-28T08:55:57.835Z,72.50
2022-08-28T08:58:43.007Z,76.70
2022-08-28T09:01:29.865Z,78.80
2022-08-28T09:04:15.784Z,79.90
2022-08-28T09:07:00.719Z,80.90
2022-08-28T09:09:33.476Z,81.80
2022-08-28T09:12:06.881Z,82.50
2022-08-28T09:14:38.157Z,83.00
2022-08-28T09:17:09.109Z,83.40
2022-08-28T09:19:37.445Z,83.90
2022-08-28T09:22:06.191Z,84.60
2022-08-28T09:24:35.478Z,85.10
2022-08-28T09:27:26.909Z,85.50
2022-08-28T09:30:09.913Z,85.90
2022-08-28T09:32:42.055Z,86.20
2022-08-28T09:35:26.974Z,81.70
2022-08-28T09:37:56.328Z,76.20
2022-08-28T09:40:30.463Z,73.70
2022-08-28T09:43:04.328Z,71.90
2022-08-28T09:45:32.848Z,74.30
2022-08-28T09:48:01.532Z,78.90
2022-08-28T09:50:34.456Z,80.40
2022-08-28T09:53:11.876Z,81.50
2022-08-28T09:56:03.250Z,82.00
2022-08-28T09:58:36.956Z,82.70
2022-08-28T10:01:29.554Z,83.20
2022-08-28T10:04:15.655Z,83.60
2022-08-28T10:06:55.334Z,84.10
2022-08-28T10:09:32.704Z,84.30
2022-08-28T10:12:24.882Z,84.60
2022-08-28T10:15:05.365Z,84.80
2022-08-28T10:18:07.475Z,82.10
2022-08-28T10:20:44.869Z,75.80
2022-08-28T10:23:31.893Z,72.60
2022-08-28T10:26:19.377Z,71.00
2022-08-28T10:29:24.753Z,75.80
2022-08-28T10:32:31.188Z,77.90
2022-08-28T10:35:18.497Z,79.10
2022-08-28T10:38:10.825Z,79.90
2022-08-28T10:40:41.774Z,80.70
2022-08-28T10:43:18.994Z,81.40
2022-08-28T10:45:49.766Z,81.80
2022-08-28T10:48:26.230Z,82.40
2022-08-28T10:51:00.816Z,82.90
2022-08-28T10:53:56.601Z,83.30
2022-08-28T10:56:56.165Z,83.60
2022-08-28T10:59:29.505Z,84.10
2022-08-28T11:01:58.400Z,84.30
2022-08-28T11:04:27.167Z,84.30
2022-08-28T11:07:11.991Z,77.20
2022-08-28T11:09:45.821Z,73.90
2022-08-28T11:12:17.205Z,72.00
2022-08-28T11:14:48.889Z,74.90
2022-08-28T11:17:23.163Z,77.60
2022-08-28T11:20:09.924Z,78.80
2022-08-28T11:22:50.604Z,79.60
2022-08-28T11:25:33.011Z,81.00
2022-08-28T11:28:16.743Z,81.30
2022-08-28T11:30:47.412Z,81.90
2022-08-28T11:33:37.453Z,82.60
2022-08-28T11:36:20.968Z,83.40
2022-08-28T11:38:58.167Z,84.00
2022-08-28T11:41:38.641Z,84.20
2022-08-28T11:44:09.885Z,84.50
2022-08-28T11:46:41.454Z,84.90
2022-08-28T11:49:46.022Z,85.10
2022-08-28T11:53:01.975Z,85.30
2022-08-28T11:56:02.164Z,78.60
2022-08-28T11:59:10.519Z,74.20
2022-08-28T12:01:38.609Z,73.90
2022-08-28T12:04:11.561Z,78.30
2022-08-28T12:06:46.292Z,80.20
2022-08-28T12:09:42.135Z,81.60
2022-08-28T12:12:24.011Z,83.50
2022-08-28T12:15:09.121Z,78.40
2022-08-28T12:17:44.204Z,74.70
2022-08-28T12:20:34.607Z,76.00
2022-08-28T12:23:24.014Z,79.90
2022-08-28T12:26:20.473Z,82.00
2022-08-28T12:29:18.971Z,82.70
2022-08-28T12:31:53.304Z,79.20
2022-08-28T12:34:40.236Z,76.20
2022-08-28T12:37:51.665Z,76.00
2022-08-28T12:40:46.910Z,80.50
2022-08-28T12:43:31.289Z,82.10
2022-08-28T12:46:08.753Z,83.40
2022-08-28T12:48:54.318Z,78.70
2022-08-28T12:51:25.537Z,76.00
2022-08-28T12:53:57.152Z,77.10
2022-08-28T12:56:27.925Z,79.90
2022-08-28T12:58:57.154Z,81.90
2022-08-28T13:01:34.950Z,83.00
2022-08-28T13:04:48.426Z,82.60
2022-08-28T13:07:23.977Z,76.70
2022-08-28T13:09:55.916Z,75.00
2022-08-28T13:12:55.825Z,78.90
2022-08-28T13:15:51.251Z,81.30
2022-08-28T13:18:52.732Z,82.70
2022-08-28T13:21:32.844Z,84.00
2022-08-28T13:24:22.825Z,77.60
2022-08-28T13:27:02.265Z,75.80
2022-08-28T13:29:31.283Z,79.20
2022-08-28T13:32:05.789Z,80.50
2022-08-28T13:34:36.198Z,81.60
2022-08-28T13:37:20.301Z,82.40
2022-08-28T13:39:49.104Z,83.10
2022-08-28T13:42:18.275Z,83.30
2022-08-28T13:44:52.129Z,84.10
2022-08-28T13:47:20.961Z,84.70
2022-08-28T13:49:49.204Z,85.40
2022-08-28T13:52:18.091Z,86.00
2022-08-28T13:54:47.052Z,79.20
2022-08-28T13:57:15.106Z,75.70
2022-08-28T13:59:43.339Z,73.60
2022-08-28T14:02:14.581Z,71.80
2022-08-28T14:04:43.131Z,73.90
2022-08-28T14:07:13.024Z,77.30
2022-08-28T14:09:41.993Z,79.30
2022-08-28T14:12:11.336Z,80.60
2022-08-28T14:14:40.518Z,81.30
2022-08-28T14:17:10.072Z,82.20
2022-08-28T14:19:38.646Z,83.20
2022-08-28T14:22:07.028Z,84.80
2022-08-28T14:24:35.358Z,85.40
2022-08-28T14:27:05.306Z,85.80
2022-08-28T14:29:38.406Z,82.20
2022-08-28T14:32:07.065Z,77.10
2022-08-28T14:34:35.293Z,74.40
2022-08-28T14:37:04.089Z,72.50
2022-08-28T14:39:32.039Z,71.00
2022-08-28T14:42:00.412Z,75.30
2022-08-28T14:44:28.879Z,77.70
2022-08-28T14:46:57.514Z,79.00
2022-08-28T14:49:27.665Z,80.00
2022-08-28T14:51:56.463Z,81.60
2022-08-28T14:54:25.687Z,82.10
2022-08-28T14:56:54.970Z,83.40
2022-08-28T14:59:26.294Z,83.20
2022-08-28T15:01:56.909Z,83.40
2022-08-28T15:04:26.197Z,84.10
2022-08-28T15:06:59.801Z,82.60
2022-08-28T15:09:28.449Z,77.50
2022-08-28T15:11:56.485Z,75.70
2022-08-28T15:14:24.970Z,75.40
2022-08-28T15:16:53.488Z,75.50
2022-08-28T15:19:21.804Z,74.30
2022-08-28T15:21:53.195Z,71.80
2022-08-28T15:24:27.049Z,70.70
2022-08-28T15:26:55.719Z,74.10
2022-08-28T15:29:23.691Z,76.90
2022-08-28T15:31:52.997Z,78.10
2022-08-28T15:34:26.609Z,79.40
2022-08-28T15:36:56.771Z,80.40
2022-08-28T15:39:32.686Z,81.30
2022-08-28T15:42:01.891Z,82.20
2022-08-28T15:44:30.931Z,82.50
2022-08-28T15:47:02.346Z,82.90
2022-08-28T15:49:33.113Z,76.10
2022-08-28T15:52:07.549Z,74.20
2022-08-28T15:54:35.948Z,76.90
2022-08-28T15:57:04.610Z,79.30
2022-08-28T15:59:39.971Z,80.50
2022-08-28T16:02:20.854Z,81.20
2022-08-28T16:04:49.956Z,82.00
2022-08-28T16:07:19.016Z,82.50
2022-08-28T16:09:47.934Z,83.20
2022-08-28T16:12:16.240Z,83.80
2022-08-28T16:14:45.297Z,84.30
2022-08-28T16:17:14.031Z,84.50
2022-08-28T16:19:43.474Z,84.80
2022-08-28T16:22:13.034Z,78.00
2022-08-28T16:24:41.220Z,74.40
